createdAt,value
2023-04-05T00:00:14.590Z,1.4
2023-04-05T00:01:30.732Z,2.1
2023-04-05T00:02:46.858Z,1.8
2023-04-05T00:04:02.993Z,1.4
2023-04-05T00:05:19.125Z,1.4
2023-04-05T00:06:35.283Z,2
2023-04-05T00:07:51.401Z,1.6
2023-04-05T00:09:07.547Z,1.5
2023-04-05T00:10:23.676Z,1.6
2023-04-05T00:11:39.805Z,1.3
2023-04-05T00:12:55.947Z,1.6
2023-04-05T00:14:12.095Z,1.6
2023-04-05T00:15:28.220Z,1.6
2023-04-05T00:16:44.345Z,1.6
2023-04-05T00:18:00.491Z,1.5
2023-04-05T00:19:16.629Z,1.5
2023-04-05T00:20:32.826Z,1.4
2023-04-05T00:21:48.057Z,1.6
2023-04-05T00:23:03.278Z,1.6
2023-04-05T00:24:19.413Z,1.4
2023-04-05T00:25:35.530Z,2
2023-04-05T00:26:51.662Z,1.2
2023-04-05T00:28:07.799Z,2
2023-04-05T00:30:40.089Z,1.9
2023-04-05T00:31:56.205Z,2.3
2023-04-05T00:33:12.339Z,1.5
2023-04-05T00:34:28.479Z,1.7
2023-04-05T00:35:44.633Z,1.7
2023-04-05T00:37:00.769Z,1.4
2023-04-05T00:38:16.885Z,1.4
2023-04-05T00:39:33.018Z,1.3
2023-04-05T00:40:49.167Z,1.8
2023-04-05T00:42:05.302Z,1.7
2023-04-05T00:43:21.433Z,1.5
2023-04-05T00:44:37.566Z,1.6
2023-04-05T00:45:53.711Z,1.4
2023-04-05T00:47:09.833Z,1.4
2023-04-05T00:48:25.987Z,2
2023-04-05T00:49:42.116Z,1.7
2023-04-05T00:50:58.245Z,1.8
2023-04-05T00:53:30.526Z,1.5
2023-04-05T00:54:46.727Z,1.7
2023-04-05T00:56:01.973Z,1.6
2023-04-05T00:57:18.156Z,1.8
2023-04-05T00:58:33.365Z,1.8
2023-04-05T00:59:49.000Z,1.7
2023-04-05T01:01:05.624Z,1.6
2023-04-05T01:02:21.765Z,1.2
2023-04-05T01:03:37.887Z,1.7
2023-04-05T01:04:54.040Z,2.1
2023-04-05T01:06:10.172Z,1.6
2023-04-05T01:07:26.299Z,1.9
2023-04-05T01:08:42.429Z,1.7
2023-04-05T01:09:58.564Z,1.5
2023-04-05T01:11:14.716Z,1.6
2023-04-05T01:12:30.859Z,2
2023-04-05T01:13:46.990Z,1.5
2023-04-05T01:15:03.114Z,2
2023-04-05T01:16:19.243Z,1.5
2023-04-05T01:17:35.394Z,1.6
2023-04-05T01:18:51.533Z,1.5
2023-04-05T01:20:07.666Z,1.4
2023-04-05T01:21:23.805Z,1.7
2023-04-05T01:22:39.924Z,1.6
2023-04-05T01:23:56.080Z,1.6
2023-04-05T01:25:12.203Z,1.6
2023-04-05T01:26:28.350Z,1.2
2023-04-05T01:27:44.468Z,1.9
2023-04-05T01:29:00.601Z,2
2023-04-05T01:30:16.821Z,1.6
2023-04-05T01:31:32.058Z,1.7
2023-04-05T01:32:47.254Z,1.9
2023-04-05T01:34:03.394Z,1.6
2023-04-05T01:35:19.534Z,1.8
2023-04-05T01:36:35.679Z,1.6
2023-04-05T01:37:51.797Z,1.5
2023-04-05T01:39:07.934Z,1.4
2023-04-05T01:40:24.091Z,1.4
2023-04-05T01:41:40.215Z,1.8
2023-04-05T01:42:56.346Z,2
2023-04-05T01:44:12.485Z,1.6
2023-04-05T01:45:28.614Z,1.6
2023-04-05T01:46:44.764Z,1.6
2023-04-05T01:48:00.891Z,1.3
2023-04-05T01:49:17.023Z,1.5
2023-04-05T01:50:33.165Z,2.4
2023-04-05T01:51:49.296Z,1.5
2023-04-05T01:53:05.447Z,1.8
2023-04-05T01:54:21.576Z,1.9
2023-04-05T01:55:37.703Z,1.9
2023-04-05T01:56:53.836Z,1.7
2023-04-05T01:58:09.980Z,1.7
2023-04-05T01:59:26.129Z,1.9
2023-04-05T02:00:42.260Z,1.8
2023-04-05T02:01:58.391Z,1.5
2023-04-05T02:03:14.516Z,2.1
2023-04-05T02:04:30.712Z,1.6
2023-04-05T02:05:45.951Z,1.4
2023-04-05T02:07:01.162Z,1.7
2023-04-05T02:08:16.316Z,1.6
2023-04-05T02:09:32.446Z,1.9
2023-04-05T02:10:48.580Z,1.7
2023-04-05T02:12:04.705Z,1.6
2023-04-05T02:13:20.000Z,1.6
2023-04-05T02:14:36.988Z,1.7
2023-04-05T02:15:53.115Z,1.9
2023-04-05T02:17:09.256Z,1.5
2023-04-05T02:18:25.392Z,1.7
2023-04-05T02:19:41.513Z,1.5
2023-04-05T02:20:57.657Z,1.7
2023-04-05T02:22:13.799Z,1.7
2023-04-05T02:23:29.938Z,1.8
2023-04-05T02:24:46.073Z,1.8
2023-04-05T02:26:02.207Z,1.5
2023-04-05T02:27:18.348Z,1.6
2023-04-05T02:28:34.471Z,1.4
2023-04-05T02:29:50.607Z,1.7
2023-04-05T02:31:06.742Z,1.9
2023-04-05T02:32:22.886Z,2
2023-04-05T02:33:39.023Z,1.8
2023-04-05T02:34:55.162Z,1.5
2023-04-05T02:36:11.290Z,2.1
2023-04-05T02:37:27.427Z,1.4
2023-04-05T02:38:43.566Z,1.8
2023-04-05T02:39:59.707Z,1.6
2023-04-05T02:41:15.841Z,1.2
2023-04-05T02:42:31.965Z,1.8
2023-04-05T02:43:48.109Z,1.4
2023-04-05T02:45:04.240Z,2.3
2023-04-05T02:46:20.381Z,1.8
2023-04-05T02:47:36.509Z,1.7
2023-04-05T02:48:52.645Z,1.6
2023-04-05T02:50:08.783Z,1.8
2023-04-05T02:51:24.914Z,1.7
2023-04-05T02:52:41.055Z,1.6
2023-04-05T02:53:57.195Z,1.5
2023-04-05T02:55:13.400Z,1.3
2023-04-05T02:56:28.624Z,1.9
2023-04-05T02:57:43.836Z,1.5
2023-04-05T02:58:59.972Z,1.7
2023-04-05T03:00:16.112Z,1.7
2023-04-05T03:01:32.235Z,1.2
2023-04-05T03:02:48.373Z,1.7
2023-04-05T03:04:04.516Z,2
2023-04-05T03:05:20.658Z,1.5
2023-04-05T03:06:36.775Z,1.4
2023-04-05T03:07:52.924Z,1.6
2023-04-05T03:09:09.064Z,1.8
2023-04-05T03:10:25.000Z,2.2
2023-04-05T03:11:41.323Z,1.2
2023-04-05T03:12:57.471Z,2.1
2023-04-05T03:14:13.593Z,1.7
2023-04-05T03:15:29.738Z,1.2
2023-04-05T03:16:45.876Z,1.3
2023-04-05T03:18:02.014Z,1.8
2023-04-05T03:19:18.133Z,1.7
2023-04-05T03:20:34.283Z,1.6
2023-04-05T03:21:50.424Z,1.7
2023-04-05T03:23:06.558Z,1.4
2023-04-05T03:24:22.697Z,1.5
2023-04-05T03:25:38.812Z,1.6
2023-04-05T03:26:54.953Z,1.3
2023-04-05T03:28:11.103Z,1.6
2023-04-05T03:29:27.293Z,1.4
2023-04-05T03:30:42.555Z,1.5
2023-04-05T03:31:58.748Z,1.8
2023-04-05T03:33:13.952Z,1.5
2023-04-05T03:34:30.081Z,1.5
2023-04-05T03:35:46.222Z,1.5
2023-04-05T03:37:02.344Z,1.4
2023-04-05T03:38:18.502Z,1.4
2023-04-05T03:39:34.638Z,2.6
2023-04-05T03:40:50.758Z,1.7
2023-04-05T03:42:06.894Z,1.4
2023-04-05T03:43:23.032Z,1.4
2023-04-05T03:44:39.182Z,1.4
2023-04-05T03:45:55.321Z,1.4
2023-04-05T03:47:11.449Z,1.4
2023-04-05T03:48:27.574Z,1.3
2023-04-05T03:49:43.712Z,1.9
2023-04-05T03:50:59.852Z,1.2
2023-04-05T03:52:15.994Z,1.4
2023-04-05T03:53:32.129Z,1.4
2023-04-05T03:54:48.260Z,1.3
2023-04-05T03:56:04.399Z,1.5
2023-04-05T03:57:20.546Z,1.9
2023-04-05T03:58:36.679Z,1.8
2023-04-05T03:59:52.803Z,1.9
2023-04-05T04:01:08.942Z,1.5
2023-04-05T04:02:25.080Z,1.3
2023-04-05T04:03:41.216Z,1.5
2023-04-05T04:04:57.418Z,1.7
2023-04-05T04:06:12.655Z,1.5
2023-04-05T04:07:27.853Z,1.4
2023-04-05T04:08:43.979Z,1.7
2023-04-05T04:10:00.119Z,2.1
2023-04-05T04:11:16.263Z,2
2023-04-05T04:12:32.392Z,1.7
2023-04-05T04:13:48.543Z,1.3
2023-04-05T04:15:04.676Z,1.8
2023-04-05T04:16:20.798Z,1.7
2023-04-05T04:17:36.939Z,1.6
2023-04-05T04:18:53.074Z,1.4
2023-04-05T04:20:09.223Z,1.6
2023-04-05T04:21:25.342Z,1.3
2023-04-05T04:22:41.479Z,1.9
2023-04-05T04:23:57.616Z,1.4
2023-04-05T04:25:13.744Z,1.8
2023-04-05T04:26:29.906Z,2.1
2023-04-05T04:27:46.035Z,1.1
2023-04-05T04:29:02.165Z,1.6
2023-04-05T04:30:18.311Z,1.7
2023-04-05T04:31:34.441Z,1.4
2023-04-05T04:32:50.580Z,1.6
2023-04-05T04:34:06.710Z,1.5
2023-04-05T04:35:22.843Z,1.5
2023-04-05T04:36:38.982Z,1.3
2023-04-05T04:37:55.117Z,1.3
2023-04-05T04:39:11.324Z,1.7
2023-04-05T04:40:26.563Z,1.5
2023-04-05T04:41:41.771Z,1.5
2023-04-05T04:42:57.914Z,1.4
2023-04-05T04:44:14.059Z,1.5
2023-04-05T04:45:30.181Z,1.2
2023-04-05T04:46:46.315Z,1.6
2023-04-05T04:48:02.448Z,1.4
2023-04-05T04:49:18.600Z,1.3
2023-04-05T04:50:34.741Z,1.8
2023-04-05T04:51:50.868Z,1.5
2023-04-05T04:53:07.009Z,1.6
2023-04-05T04:54:23.126Z,1.3
2023-04-05T04:55:39.278Z,1.4
2023-04-05T04:56:55.418Z,1.3
2023-04-05T04:58:11.551Z,1.5
2023-04-05T04:59:27.681Z,1.8
2023-04-05T05:00:43.812Z,1.2
2023-04-05T05:01:59.967Z,1.4
2023-04-05T05:03:16.098Z,1.5
2023-04-05T05:04:32.229Z,1.5
2023-04-05T05:05:48.367Z,1.6
2023-04-05T05:07:04.491Z,1.6
2023-04-05T05:08:20.649Z,1.5
2023-04-05T05:09:36.787Z,1.3
2023-04-05T05:10:52.904Z,1.5
2023-04-05T05:12:09.045Z,1.8
2023-04-05T05:13:25.247Z,1.5
2023-04-05T05:14:40.475Z,1.7
2023-04-05T05:15:56.671Z,1.8
2023-04-05T05:17:11.878Z,1.7
2023-04-05T05:18:28.020Z,1.5
2023-04-05T05:19:44.158Z,1.5
2023-04-05T05:21:00.286Z,1.9
2023-04-05T05:22:16.417Z,2.1
2023-04-05T05:23:32.565Z,1.7
2023-04-05T05:24:48.695Z,1.4
2023-04-05T05:26:04.847Z,1.5
2023-04-05T05:27:20.970Z,1.3
2023-04-05T05:28:37.096Z,1.7
2023-04-05T05:29:53.237Z,1.4
2023-04-05T05:31:09.389Z,1.4
2023-04-05T05:32:25.516Z,1.6
2023-04-05T05:33:41.659Z,1.3
2023-04-05T05:34:57.790Z,1.8
2023-04-05T05:36:13.925Z,1.7
2023-04-05T05:37:30.071Z,1.4
2023-04-05T05:38:46.210Z,1.3
2023-04-05T05:40:02.327Z,1.7
2023-04-05T05:41:18.472Z,1.7
2023-04-05T05:42:34.605Z,1.2
2023-04-05T05:43:50.753Z,2.1
2023-04-05T05:45:06.883Z,1.9
2023-04-05T05:46:23.017Z,1.5
2023-04-05T05:47:39.144Z,1.7
2023-04-05T05:48:55.341Z,1.5
2023-04-05T05:50:10.576Z,1.4
2023-04-05T05:51:25.846Z,1.9
2023-04-05T05:52:41.080Z,1.6
2023-04-05T05:53:56.299Z,1.3
2023-04-05T05:55:11.449Z,1.4
2023-04-05T05:56:27.587Z,1.2
2023-04-05T05:57:43.732Z,1.3
2023-04-05T05:58:59.857Z,1.1
2023-04-05T06:00:16.000Z,1.2
2023-04-05T06:01:32.132Z,1.4
2023-04-05T06:02:48.279Z,1.3
2023-04-05T06:04:04.406Z,1.2
2023-04-05T06:05:20.537Z,1.4
2023-04-05T06:06:36.671Z,1.1
2023-04-05T06:07:52.803Z,1.5
2023-04-05T06:09:08.959Z,1.5
2023-04-05T06:10:25.085Z,1.6
2023-04-05T06:11:41.212Z,1.6
2023-04-05T06:12:57.345Z,1.3
2023-04-05T06:14:13.479Z,1.5
2023-04-05T06:15:29.630Z,1.5
2023-04-05T06:16:45.761Z,1.4
2023-04-05T06:18:01.890Z,1.5
2023-04-05T06:19:18.027Z,1.7
2023-04-05T06:20:34.173Z,1.4
2023-04-05T06:23:06.451Z,1.7
2023-04-05T06:24:22.582Z,1.7
2023-04-05T06:25:38.718Z,1.5
2023-04-05T06:26:54.840Z,1.7
2023-04-05T06:28:10.991Z,1.5
2023-04-05T06:29:27.119Z,1.6
2023-04-05T06:30:43.256Z,1.3
2023-04-05T06:31:59.380Z,2
2023-04-05T06:33:15.521Z,1.3
2023-04-05T06:34:31.667Z,1.8
2023-04-05T06:35:47.795Z,1.6
2023-04-05T06:37:03.927Z,1.3
2023-04-05T06:38:20.061Z,1.2
2023-04-05T06:39:36.197Z,1.3
2023-04-05T06:40:52.343Z,1.5
2023-04-05T06:42:08.538Z,1.3
2023-04-05T06:43:23.749Z,1.3
2023-04-05T06:44:39.875Z,1.5
2023-04-05T06:45:56.030Z,1.7
2023-04-05T06:47:12.166Z,1.5
2023-04-05T06:48:28.293Z,1.1
2023-04-05T06:49:44.420Z,1.4
2023-04-05T06:51:00.570Z,1
2023-04-05T06:52:16.718Z,1.1
2023-04-05T06:53:32.849Z,1.4
2023-04-05T06:54:48.984Z,1.4
2023-04-05T06:56:05.104Z,1.2
2023-04-05T06:57:21.249Z,1.4
2023-04-05T06:58:37.384Z,1.4
2023-04-05T06:59:53.525Z,1.1
2023-04-05T07:01:09.650Z,1.6
2023-04-05T07:02:25.786Z,1.3
2023-04-05T07:03:41.913Z,1.3
2023-04-05T07:04:58.075Z,1.4
2023-04-05T07:06:14.209Z,1.5
2023-04-05T07:07:30.332Z,1.1
2023-04-05T07:08:46.461Z,1.1
2023-04-05T07:10:02.597Z,1.4
2023-04-05T07:11:18.755Z,2
2023-04-05T07:12:34.877Z,1.3
2023-04-05T07:13:51.024Z,1.3
2023-04-05T07:15:07.203Z,1.3
2023-04-05T07:16:22.414Z,1.4
2023-04-05T07:17:38.550Z,1.2
2023-04-05T07:18:54.671Z,1.2
2023-04-05T07:20:10.805Z,1.2
2023-04-05T07:21:26.952Z,1.8
2023-04-05T07:22:43.091Z,1.2
2023-04-05T07:23:59.225Z,1.2
2023-04-05T07:25:15.355Z,1.2
2023-04-05T07:26:31.500Z,0.9
2023-04-05T07:29:03.766Z,1.2
2023-04-05T07:30:19.916Z,1.2
2023-04-05T07:31:36.045Z,1.7
2023-04-05T07:32:52.171Z,1.6
2023-04-05T07:34:08.314Z,1.2
2023-04-05T07:35:24.450Z,1.6
2023-04-05T07:36:40.585Z,1.4
2023-04-05T07:37:56.716Z,1.7
2023-04-05T07:39:12.860Z,1.6
2023-04-05T07:40:28.982Z,1.4
2023-04-05T07:41:45.129Z,1.1
2023-04-05T07:43:01.274Z,1.6
2023-04-05T07:44:17.399Z,1.1
2023-04-05T07:45:33.531Z,1.1
2023-04-05T07:46:49.677Z,2
2023-04-05T07:48:05.881Z,1.1
2023-04-05T07:49:21.128Z,1.2
2023-04-05T07:50:37.318Z,1.2
2023-04-05T07:51:52.526Z,1.4
2023-04-05T07:53:08.668Z,1.6
2023-04-05T07:54:24.805Z,1
2023-04-05T07:55:40.937Z,1
2023-04-05T07:56:57.066Z,1.6
2023-04-05T07:58:13.222Z,1.2
2023-04-05T07:59:29.358Z,1.4
2023-04-05T08:00:45.489Z,1.1
2023-04-05T08:02:01.622Z,0.7
2023-04-05T08:03:17.747Z,1
2023-04-05T08:04:33.908Z,1
2023-04-05T08:05:50.035Z,1
2023-04-05T08:07:06.176Z,1
2023-04-05T08:08:22.306Z,1
2023-04-05T08:09:38.426Z,0.9
2023-04-05T08:10:54.584Z,0.8
2023-04-05T08:12:10.719Z,1
2023-04-05T08:13:26.844Z,1
2023-04-05T08:14:42.982Z,1.1
2023-04-05T08:15:59.123Z,0.9
2023-04-05T08:17:15.260Z,1.2
2023-04-05T08:18:31.395Z,0.7
2023-04-05T08:19:47.525Z,1.1
2023-04-05T08:21:03.658Z,1.1
2023-04-05T08:22:19.805Z,0.8
2023-04-05T08:23:36.002Z,1.1
2023-04-05T08:24:51.237Z,1
2023-04-05T08:26:06.448Z,0.9
2023-04-05T08:27:22.590Z,2
2023-04-05T08:28:38.719Z,0.9
2023-04-05T08:29:54.856Z,1.3
2023-04-05T08:31:11.000Z,0.9
2023-04-05T08:32:27.135Z,0.9
2023-04-05T08:33:43.271Z,0.7
2023-04-05T08:34:59.416Z,0.8
2023-04-05T08:36:15.549Z,1.1
2023-04-05T08:37:31.681Z,0.9
2023-04-05T08:38:47.812Z,0.6
2023-04-05T08:40:03.953Z,1.6
2023-04-05T08:41:20.105Z,0.9
2023-04-05T08:42:36.236Z,1
2023-04-05T08:43:52.360Z,1.1
2023-04-05T08:45:08.000Z,0.9
2023-04-05T08:46:24.653Z,0.7
2023-04-05T08:47:40.775Z,0.7
2023-04-05T08:48:56.904Z,0.8
2023-04-05T08:50:13.053Z,1
2023-04-05T08:51:29.184Z,0.7
2023-04-05T08:52:45.330Z,0.9
2023-04-05T08:54:01.461Z,0.6
2023-04-05T08:55:17.592Z,0.8
2023-04-05T08:56:33.734Z,0.8
2023-04-05T08:57:49.915Z,0.8
2023-04-05T08:59:05.158Z,1.3
2023-04-05T09:00:20.373Z,0.8
2023-04-05T09:01:36.507Z,0.9
2023-04-05T09:02:52.654Z,0.9
2023-04-05T09:04:08.785Z,0.7
2023-04-05T09:05:24.916Z,1.1
2023-04-05T09:06:41.047Z,1.5
2023-04-05T09:07:57.196Z,0.8
2023-04-05T09:09:13.337Z,1.2
2023-04-05T09:10:29.470Z,1
2023-04-05T09:11:45.601Z,0.9
2023-04-05T09:13:01.744Z,1.1
2023-04-05T09:14:17.871Z,0.9
2023-04-05T09:15:34.026Z,0.7
2023-04-05T09:16:50.159Z,1.4
2023-04-05T09:18:06.301Z,0.7
2023-04-05T09:19:22.429Z,0.9
2023-04-05T09:20:38.568Z,0.6
2023-04-05T09:21:54.709Z,1.1
2023-04-05T09:23:10.838Z,1
2023-04-05T09:24:26.973Z,1.1
2023-04-05T09:25:43.109Z,1.2
2023-04-05T09:26:59.251Z,2.1
2023-04-05T09:28:15.388Z,0.8
2023-04-05T09:29:31.522Z,1.2
2023-04-05T09:30:47.656Z,1.6
2023-04-05T09:32:03.853Z,0.8
2023-04-05T09:33:19.093Z,0.7
2023-04-05T09:34:35.279Z,1.1
2023-04-05T09:35:50.503Z,1
2023-04-05T09:37:06.633Z,1
2023-04-05T09:38:22.781Z,1
2023-04-05T09:39:38.923Z,1
2023-04-05T09:40:55.051Z,0.7
2023-04-05T09:42:11.185Z,1
2023-04-05T09:43:27.311Z,0.9
2023-04-05T09:44:43.467Z,1
2023-04-05T09:45:59.596Z,1
2023-04-05T09:47:15.742Z,0.8
2023-04-05T09:48:31.865Z,1
2023-04-05T09:49:48.001Z,1.2
2023-04-05T09:51:04.153Z,0.7
2023-04-05T09:52:20.296Z,0.8
2023-04-05T09:53:36.415Z,0.6
2023-04-05T09:54:52.550Z,0.9
2023-04-05T09:56:08.695Z,0.8
2023-04-05T09:57:24.841Z,0.8
2023-04-05T09:58:40.983Z,1.1
2023-04-05T09:59:57.111Z,1.1
2023-04-05T10:01:13.239Z,0.9
2023-04-05T10:02:29.377Z,1
2023-04-05T10:03:45.526Z,1
2023-04-05T10:05:01.666Z,0.7
2023-04-05T10:06:17.797Z,0.9
2023-04-05T10:07:34.000Z,0.5
2023-04-05T10:08:49.226Z,0.8
2023-04-05T10:10:04.440Z,0.8
2023-04-05T10:11:19.583Z,1.4
2023-04-05T10:12:35.751Z,1.1
2023-04-05T10:13:51.871Z,0.7
2023-04-05T10:15:08.021Z,0.7
2023-04-05T10:16:24.142Z,0.6
2023-04-05T10:17:40.272Z,0.7
2023-04-05T10:18:56.429Z,0.8
2023-04-05T10:20:12.566Z,1
2023-04-05T10:21:28.692Z,0.6
2023-04-05T10:22:44.838Z,1.1
2023-04-05T10:24:00.973Z,1.8
2023-04-05T10:25:17.124Z,0.7
2023-04-05T10:26:33.244Z,0.9
2023-04-05T10:27:49.396Z,0.6
2023-04-05T10:29:05.532Z,0.5
2023-04-05T10:30:21.662Z,0.8
2023-04-05T10:31:37.808Z,1
2023-04-05T10:32:53.942Z,0.8
2023-04-05T10:34:10.082Z,0.8
2023-04-05T10:35:26.208Z,0.8
2023-04-05T10:36:42.355Z,0.9
2023-04-05T10:37:58.489Z,0.8
2023-04-05T10:39:14.643Z,0.9
2023-04-05T10:40:30.761Z,0.8
2023-04-05T10:41:46.910Z,0.5
2023-04-05T10:43:03.041Z,0.6
2023-04-05T10:44:19.185Z,1.4
2023-04-05T10:45:35.328Z,0.6
2023-04-05T10:46:51.462Z,0.9
2023-04-05T10:48:07.601Z,0.9
2023-04-05T10:49:23.720Z,0.7
2023-04-05T10:50:39.870Z,0.8
2023-04-05T10:51:56.008Z,0.8
2023-04-05T10:53:12.145Z,0.6
2023-04-05T10:54:28.269Z,0.8
2023-04-05T10:55:44.408Z,0.7
2023-04-05T10:57:00.566Z,0.7
2023-04-05T10:58:16.748Z,0.5
2023-04-05T10:59:31.990Z,0.9
2023-04-05T11:00:47.193Z,0.7
2023-04-05T11:02:03.331Z,0.8
2023-04-05T11:03:19.466Z,0.7
2023-04-05T11:04:35.603Z,0.7
2023-04-05T11:05:51.739Z,1.2
2023-04-05T11:07:07.887Z,0.6
2023-04-05T11:08:24.020Z,0.8
2023-04-05T11:09:40.000Z,0.6
2023-04-05T11:10:56.290Z,0.9
2023-04-05T11:12:12.434Z,0.7
2023-04-05T11:13:28.586Z,1.2
2023-04-05T11:14:44.706Z,1
2023-04-05T11:16:00.846Z,0.8
2023-04-05T11:17:16.974Z,0.8
2023-04-05T11:18:33.123Z,0.6
2023-04-05T11:19:49.255Z,0.6
2023-04-05T11:21:05.391Z,0.9
2023-04-05T11:22:21.527Z,1.2
2023-04-05T11:23:37.667Z,1
2023-04-05T11:24:53.804Z,1.2
2023-04-05T11:26:09.939Z,1
2023-04-05T11:27:26.085Z,1.1
2023-04-05T11:28:42.224Z,1.1
2023-04-05T11:29:58.358Z,0.8
2023-04-05T11:31:14.491Z,0.9
2023-04-05T11:32:30.684Z,0.7
2023-04-05T11:33:45.923Z,0.8
2023-04-05T11:35:01.144Z,0.8
2023-04-05T11:36:17.286Z,1.4
2023-04-05T11:37:33.416Z,0.8
2023-04-05T11:38:49.550Z,0.9
2023-04-05T11:40:05.681Z,1.3
2023-04-05T11:41:21.815Z,0.6
2023-04-05T11:42:37.964Z,1
2023-04-05T11:43:54.097Z,1.1
2023-04-05T11:45:10.231Z,1
2023-04-05T11:46:26.363Z,0.9
2023-04-05T11:47:42.507Z,0.6
2023-04-05T11:48:58.644Z,0.5
2023-04-05T11:50:14.777Z,0.8
2023-04-05T11:51:30.911Z,0.9
2023-04-05T11:52:47.042Z,0.8
2023-04-05T11:54:03.187Z,1.1
2023-04-05T11:55:19.000Z,1.3
2023-04-05T11:56:35.458Z,0.9
2023-04-05T11:57:51.591Z,0.9
2023-04-05T11:59:07.735Z,0.9
2023-04-05T12:00:23.861Z,1.3
2023-04-05T12:01:40.017Z,1.2
2023-04-05T12:02:56.151Z,0.9
2023-04-05T12:04:12.282Z,1.1
2023-04-05T12:05:28.413Z,1.6
2023-04-05T12:06:44.602Z,0.8
2023-04-05T12:07:59.869Z,1.4
2023-04-05T12:09:16.051Z,0.8
2023-04-05T12:10:31.275Z,0.9
2023-04-05T12:11:47.414Z,0.6
2023-04-05T12:13:03.553Z,0.9
2023-04-05T12:14:19.673Z,1.2
2023-04-05T12:15:35.818Z,0.9
2023-04-05T12:16:51.937Z,1.4
2023-04-05T12:18:08.093Z,0.9
2023-04-05T12:19:24.219Z,0.6
2023-04-05T12:20:40.355Z,0.8
2023-04-05T12:21:56.484Z,0.9
2023-04-05T12:23:12.621Z,1
2023-04-05T12:24:28.781Z,0.8
2023-04-05T12:25:44.916Z,1.5
2023-04-05T12:27:01.036Z,1.1
2023-04-05T12:28:17.165Z,0.9
2023-04-05T12:29:33.309Z,1
2023-04-05T12:30:49.455Z,0.9
2023-04-05T12:32:05.589Z,0.8
2023-04-05T12:33:21.729Z,0.9
2023-04-05T12:34:37.866Z,1.5
2023-04-05T12:35:53.992Z,1.2
2023-04-05T12:37:10.132Z,1.4
2023-04-05T12:38:26.265Z,0.7
2023-04-05T12:39:42.404Z,0.9
2023-04-05T12:40:58.537Z,1.9
2023-04-05T12:42:14.741Z,0.8
2023-04-05T12:43:29.972Z,0.8
2023-04-05T12:44:45.176Z,1.2
2023-04-05T12:46:01.313Z,1
2023-04-05T12:47:17.466Z,1.1
2023-04-05T12:48:33.593Z,1.1
2023-04-05T12:49:49.723Z,1.6
2023-04-05T12:51:05.863Z,1.3
2023-04-05T12:52:21.998Z,0.8
2023-04-05T12:53:38.152Z,0.9
2023-04-05T12:54:54.275Z,1
2023-04-05T12:56:10.411Z,1.4
2023-04-05T12:57:26.545Z,0.8
2023-04-05T12:58:42.674Z,0.8
2023-04-05T12:59:58.835Z,1.1
2023-04-05T13:01:14.960Z,1.4
2023-04-05T13:02:31.086Z,1.2
2023-04-05T13:03:47.231Z,1.7
2023-04-05T13:05:03.356Z,0.9
2023-04-05T13:06:19.509Z,0.9
2023-04-05T13:07:35.649Z,1
2023-04-05T13:08:51.767Z,1.2
2023-04-05T13:10:07.911Z,0.9
2023-04-05T13:11:24.041Z,1.4
2023-04-05T13:12:40.188Z,1.7
2023-04-05T13:13:56.324Z,0.9
2023-04-05T13:15:12.456Z,0.9
2023-04-05T13:16:28.641Z,0.9
2023-04-05T13:17:43.885Z,2.5
2023-04-05T13:18:59.083Z,1.3
2023-04-05T13:20:14.252Z,0.9
2023-04-05T13:21:30.392Z,1.1
2023-04-05T13:22:46.524Z,1
2023-04-05T13:24:02.659Z,1.2
2023-04-05T13:25:18.784Z,1.1
2023-04-05T13:26:34.917Z,1.1
2023-04-05T13:27:51.080Z,1
2023-04-05T13:29:07.205Z,1.4
2023-04-05T13:30:23.347Z,1
2023-04-05T13:31:39.468Z,0.9
2023-04-05T13:32:55.597Z,1.1
2023-04-05T13:34:11.741Z,0.9
2023-04-05T13:35:27.887Z,1.1
2023-04-05T13:36:44.015Z,1.6
2023-04-05T13:38:00.154Z,0.9
2023-04-05T13:39:16.285Z,0.7
2023-04-05T13:40:32.440Z,1
2023-04-05T13:41:48.574Z,1.2
2023-04-05T13:43:04.704Z,1.3
2023-04-05T13:44:20.833Z,1.1
2023-04-05T13:45:36.956Z,1.8
2023-04-05T13:46:53.105Z,1.3
2023-04-05T13:48:09.244Z,1.3
2023-04-05T13:49:25.378Z,0.9
2023-04-05T13:50:41.505Z,1.4
2023-04-05T13:51:57.647Z,0.8
2023-04-05T13:53:13.792Z,0.7
2023-04-05T13:54:29.933Z,0.8
2023-04-05T13:55:46.053Z,1.2
2023-04-05T13:57:02.195Z,0.8
2023-04-05T13:59:34.466Z,1.3
2023-04-05T14:00:50.607Z,0.7
2023-04-05T14:02:06.730Z,0.7
2023-04-05T14:03:22.879Z,1.1
2023-04-05T14:04:38.997Z,1.1
2023-04-05T14:05:55.156Z,1.4
2023-04-05T14:07:11.345Z,0.8
2023-04-05T14:08:26.594Z,1.2
2023-04-05T14:09:41.784Z,0.9
2023-04-05T14:10:57.930Z,0.9
2023-04-05T14:12:14.055Z,0.9
2023-04-05T14:13:30.187Z,1
2023-04-05T14:14:46.326Z,0.8
2023-04-05T14:16:02.476Z,0.9
2023-04-05T14:17:18.616Z,0.8
2023-04-05T14:18:34.737Z,1.1
2023-04-05T14:19:50.868Z,1.1
2023-04-05T14:21:07.006Z,0.8
2023-04-05T14:22:23.148Z,0.6
2023-04-05T14:23:39.292Z,1.3
2023-04-05T14:24:55.433Z,0.7
2023-04-05T14:26:11.557Z,1.1
2023-04-05T14:27:27.699Z,0.8
2023-04-05T14:28:43.844Z,1
2023-04-05T14:29:59.978Z,0.9
2023-04-05T14:31:16.098Z,0.8
2023-04-05T14:32:32.231Z,0.8
2023-04-05T14:33:48.370Z,0.8
2023-04-05T14:35:04.522Z,0.8
2023-04-05T14:36:20.647Z,0.9
2023-04-05T14:37:36.783Z,1.2
2023-04-05T14:38:52.928Z,0.9
2023-04-05T14:40:09.052Z,0.8
2023-04-05T14:41:25.269Z,0.8
2023-04-05T14:42:40.502Z,0.6
2023-04-05T14:43:56.685Z,1
2023-04-05T14:45:11.900Z,1.2
2023-04-05T14:46:28.043Z,0.9
2023-04-05T14:47:44.176Z,1.1
2023-04-05T14:49:00.298Z,1
2023-04-05T14:50:16.424Z,1.1
2023-04-05T14:51:32.577Z,0.7
2023-04-05T14:52:48.709Z,1.4
2023-04-05T14:54:04.842Z,1.5
2023-04-05T14:55:20.972Z,1.2
2023-04-05T14:56:37.108Z,0.9
2023-04-05T14:57:53.256Z,1.2
2023-04-05T14:59:09.404Z,0.8
2023-04-05T15:00:25.532Z,0.7
2023-04-05T15:01:41.670Z,1.2
2023-04-05T15:02:57.793Z,0.8
2023-04-05T15:04:13.944Z,0.5
2023-04-05T15:05:30.071Z,0.8
2023-04-05T15:06:46.216Z,0.9
2023-04-05T15:08:02.352Z,1
2023-04-05T15:09:18.469Z,0.8
2023-04-05T15:10:34.627Z,0.8
2023-04-05T15:11:50.758Z,1.8
2023-04-05T15:13:06.894Z,0.8
2023-04-05T15:14:23.020Z,0.8
2023-04-05T15:15:39.154Z,1.7
2023-04-05T15:16:55.369Z,1.5
2023-04-05T15:18:10.595Z,1
2023-04-05T15:19:25.812Z,0.9
2023-04-05T15:20:41.956Z,0.7
2023-04-05T15:21:58.084Z,0.7
2023-04-05T15:23:14.225Z,0.9
2023-04-05T15:24:30.361Z,0.9
2023-04-05T15:25:46.485Z,1.4
2023-04-05T15:27:02.640Z,1.4
2023-04-05T15:28:18.763Z,1.1
2023-04-05T15:29:34.910Z,0.8
2023-04-05T15:30:51.029Z,1
2023-04-05T15:32:07.173Z,0.9
2023-04-05T15:33:23.311Z,0.9
2023-04-05T15:34:39.443Z,1.1
2023-04-05T15:35:55.575Z,0.9
2023-04-05T15:37:11.717Z,1.3
2023-04-05T15:38:27.843Z,1
2023-04-05T15:39:43.995Z,0.7
2023-04-05T15:41:00.124Z,0.8
2023-04-05T15:42:16.267Z,0.9
2023-04-05T15:43:32.389Z,0.7
2023-04-05T15:44:48.536Z,0.8
2023-04-05T15:46:04.671Z,1.2
2023-04-05T15:47:20.810Z,0.8
2023-04-05T15:48:36.953Z,0.9
2023-04-05T15:49:53.074Z,1
2023-04-05T15:51:09.280Z,0.8
2023-04-05T15:52:24.510Z,1.3
2023-04-05T15:53:39.782Z,2.1
2023-04-05T15:54:55.015Z,0.7
2023-04-05T15:56:10.216Z,1.1
2023-04-05T15:57:25.381Z,0.9
2023-04-05T15:58:41.516Z,0.7
2023-04-05T15:59:57.647Z,1
2023-04-05T16:01:13.781Z,0.7
2023-04-05T16:02:29.917Z,1
2023-04-05T16:03:46.063Z,0.8
2023-04-05T16:05:02.199Z,0.8
2023-04-05T16:06:18.336Z,0.9
2023-04-05T16:07:34.480Z,1
2023-04-05T16:08:50.613Z,1.1
2023-04-05T16:10:06.739Z,0.8
2023-04-05T16:11:22.892Z,1.2
2023-04-05T16:12:39.013Z,1
2023-04-05T16:13:55.154Z,0.8
2023-04-05T16:15:11.287Z,1.3
2023-04-05T16:16:27.428Z,0.8
2023-04-05T16:17:43.571Z,1
2023-04-05T16:18:59.694Z,1.6
2023-04-05T16:20:15.842Z,1.1
2023-04-05T16:21:31.969Z,1
2023-04-05T16:22:48.105Z,0.8
2023-04-05T16:24:04.239Z,1.1
2023-04-05T16:25:20.390Z,0.8
2023-04-05T16:26:36.515Z,0.9
2023-04-05T16:27:52.653Z,0.9
2023-04-05T16:29:08.780Z,0.7
2023-04-05T16:30:24.927Z,0.9
2023-04-05T16:31:41.066Z,0.9
2023-04-05T16:32:57.189Z,0.7
2023-04-05T16:34:13.332Z,0.6
2023-04-05T16:35:29.472Z,0.5
2023-04-05T16:36:45.604Z,0.7
2023-04-05T16:38:01.742Z,1.2
2023-04-05T16:39:17.868Z,0.7
2023-04-05T16:40:34.002Z,0.8
2023-04-05T16:41:50.134Z,1.5
2023-04-05T16:43:06.288Z,0.8
2023-04-05T16:44:22.483Z,0.9
2023-04-05T16:45:37.699Z,0.7
2023-04-05T16:46:52.840Z,0.9
2023-04-05T16:48:08.979Z,0.8
2023-04-05T16:49:25.102Z,0.8
2023-04-05T16:50:41.249Z,0.7
2023-04-05T16:51:57.384Z,1
2023-04-05T16:53:13.516Z,0.7
2023-04-05T16:54:29.651Z,0.6
2023-04-05T16:55:45.785Z,0.8
2023-04-05T16:57:01.927Z,0.5
2023-04-05T16:58:18.056Z,0.7
2023-04-05T16:59:34.204Z,1
2023-04-05T17:00:50.341Z,0.6
2023-04-05T17:02:06.468Z,0.8
2023-04-05T17:03:22.614Z,0.7
2023-04-05T17:04:38.731Z,0.9
2023-04-05T17:05:54.893Z,0.6
2023-04-05T17:07:11.015Z,0.7
2023-04-05T17:08:27.146Z,0.5
2023-04-05T17:09:43.296Z,0.7
2023-04-05T17:10:59.422Z,0.9
2023-04-05T17:12:15.569Z,0.8
2023-04-05T17:13:31.700Z,0.7
2023-04-05T17:14:47.843Z,1.1
2023-04-05T17:16:03.960Z,0.8
2023-04-05T17:17:20.103Z,0.5
2023-04-05T17:18:36.239Z,1
2023-04-05T17:19:52.383Z,0.4
2023-04-05T17:21:08.526Z,0.7
2023-04-05T17:22:24.655Z,1.1
2023-04-05T17:23:40.790Z,1
2023-04-05T17:24:56.938Z,0.6
2023-04-05T17:26:13.056Z,0.5
2023-04-05T17:27:29.208Z,0.6
2023-04-05T17:28:45.325Z,0.7
2023-04-05T17:30:01.474Z,0.7
2023-04-05T17:31:17.607Z,0.5
2023-04-05T17:32:33.739Z,0.7
2023-04-05T17:33:49.000Z,0.6
2023-04-05T17:35:05.151Z,0.7
2023-04-05T17:36:21.297Z,0.9
2023-04-05T17:37:37.413Z,0.9
2023-04-05T17:38:53.549Z,0.6
2023-04-05T17:40:09.681Z,0.7